createdAt,value
2019-05-09T00:01:14.341Z,8.30
2019-05-09T00:03:44.374Z,8.20
2019-05-09T00:06:13.698Z,8.20
2019-05-09T00:08:44.252Z,8.20
2019-05-09T00:11:14.509Z,8.10
2019-05-09T00:13:43.635Z,8.10
2019-05-09T00:16:14.590Z,8.10
2019-05-09T00:18:44.049Z,8.10
2019-05-09T00:21:17.487Z,8.10
2019-05-09T00:23:46.175Z,8.10
2019-05-09T00:26:14.913Z,8.00
2019-05-09T00:28:45.239Z,8.10
2019-05-09T00:31:15.557Z,8.00
2019-05-09T00:33:48.032Z,8.00
2019-05-09T00:36:16.554Z,7.90
2019-05-09T00:38:45.966Z,7.90
2019-05-09T00:41:14.659Z,7.90
2019-05-09T00:43:44.975Z,7.90
2019-05-09T00:46:27.689Z,7.90
2019-05-09T00:48:58.009Z,7.90
2019-05-09T00:51:26.653Z,7.80
2019-05-09T00:53:55.369Z,7.70
2019-05-09T00:56:24.248Z,7.70
2019-05-09T00:58:53.742Z,7.70
2019-05-09T01:01:24.024Z,7.60
2019-05-09T01:03:53.694Z,7.70
2019-05-09T01:06:23.890Z,7.60
2019-05-09T01:08:53.693Z,7.60
2019-05-09T01:11:24.375Z,7.50
2019-05-09T01:13:54.312Z,7.50
2019-05-09T01:16:24.178Z,7.50
2019-05-09T01:18:54.449Z,7.50
2019-05-09T01:21:24.099Z,7.50
2019-05-09T01:23:54.024Z,7.50
2019-05-09T01:26:24.061Z,7.50
2019-05-09T01:28:54.092Z,7.50
2019-05-09T01:31:24.074Z,7.60
2019-05-09T01:34:00.968Z,7.50
2019-05-09T01:36:47.421Z,7.50
2019-05-09T01:39:16.230Z,7.50
2019-05-09T01:41:44.910Z,7.50
2019-05-09T01:44:13.596Z,7.40
2019-05-09T01:46:43.617Z,7.30
2019-05-09T01:49:13.855Z,7.30
2019-05-09T01:51:44.498Z,7.30
2019-05-09T01:54:13.670Z,7.30
2019-05-09T01:56:43.689Z,7.30
2019-05-09T01:59:13.660Z,7.30
2019-05-09T02:01:43.415Z,7.30
2019-05-09T02:04:13.716Z,7.30
2019-05-09T02:06:44.053Z,7.30
2019-05-09T02:09:14.086Z,7.40
2019-05-09T02:11:45.597Z,7.40
2019-05-09T02:14:15.487Z,7.40
2019-05-09T02:16:48.790Z,7.40
2019-05-09T02:19:28.157Z,7.40
2019-05-09T02:21:57.138Z,7.60
2019-05-09T02:24:25.822Z,7.60
2019-05-09T02:26:54.833Z,7.60
2019-05-09T02:29:23.506Z,7.70
2019-05-09T02:31:54.452Z,7.80
2019-05-09T02:34:24.941Z,7.80
2019-05-09T02:36:52.862Z,7.80
2019-05-09T02:39:21.543Z,7.70
2019-05-09T02:42:00.994Z,7.70
2019-05-09T02:44:20.598Z,7.70
2019-05-09T02:46:50.950Z,7.70
2019-05-09T02:49:19.667Z,7.70
2019-05-09T02:51:48.940Z,7.70
2019-05-09T02:54:19.191Z,7.70
2019-05-09T02:56:49.309Z,7.70
2019-05-09T02:59:19.830Z,7.70
2019-05-09T03:02:09.592Z,7.70
2019-05-09T03:04:39.117Z,7.70
2019-05-09T03:07:09.656Z,7.70
2019-05-09T03:09:38.914Z,7.70
2019-05-09T03:12:22.963Z,7.60
2019-05-09T03:14:38.584Z,7.60
2019-05-09T03:17:08.786Z,7.70
2019-05-09T03:19:38.710Z,7.70
2019-05-09T03:22:09.158Z,7.80
2019-05-09T03:24:39.360Z,7.70
2019-05-09T03:27:09.905Z,7.70
2019-05-09T03:29:40.257Z,7.70
2019-05-09T03:32:09.576Z,7.70
2019-05-09T03:34:38.459Z,7.70
2019-05-09T03:37:08.446Z,7.70
2019-05-09T03:39:37.790Z,7.70
2019-05-09T03:42:07.904Z,7.70
2019-05-09T03:44:38.503Z,7.80
2019-05-09T03:47:11.397Z,7.80
2019-05-09T03:49:40.082Z,7.80
2019-05-09T03:52:08.763Z,7.70
2019-05-09T03:54:37.660Z,7.70
2019-05-09T03:57:08.023Z,7.70
2019-05-09T03:59:38.099Z,7.70
2019-05-09T04:02:09.984Z,7.70
2019-05-09T04:04:38.473Z,7.70
2019-05-09T04:07:08.386Z,7.70
2019-05-09T04:09:39.617Z,7.60
2019-05-09T04:12:07.703Z,7.60
2019-05-09T04:14:37.708Z,7.60
2019-05-09T04:17:07.831Z,7.50
2019-05-09T04:19:38.056Z,7.50
2019-05-09T04:22:08.028Z,7.30
2019-05-09T04:24:38.268Z,7.30
2019-05-09T04:27:08.686Z,7.20
2019-05-09T04:29:37.524Z,7.20
2019-05-09T04:32:07.964Z,7.20
2019-05-09T04:34:38.112Z,7.20
2019-05-09T04:37:08.088Z,7.20
2019-05-09T04:39:38.731Z,7.20
2019-05-09T04:42:08.584Z,7.20
2019-05-09T04:44:39.052Z,7.20
2019-05-09T04:47:08.726Z,7.20
2019-05-09T04:49:40.978Z,7.10
2019-05-09T04:52:08.304Z,7.20
2019-05-09T04:54:38.449Z,7.20
2019-05-09T04:57:07.949Z,7.10
2019-05-09T04:59:37.467Z,7.10
2019-05-09T05:02:10.689Z,7.10
2019-05-09T05:04:39.730Z,7.10
2019-05-09T05:07:08.400Z,7.20
2019-05-09T05:09:38.084Z,7.20
2019-05-09T05:12:08.401Z,7.30
2019-05-09T05:14:38.436Z,7.40
2019-05-09T05:17:11.146Z,7.50
2019-05-09T05:19:38.512Z,7.60
2019-05-09T05:22:09.250Z,7.70
2019-05-09T05:24:39.525Z,7.80
2019-05-09T06:23:48.090Z,9.20
2019-05-09T06:26:18.566Z,9.30
2019-05-09T06:28:48.142Z,9.30
2019-05-09T06:31:17.861Z,9.40
2019-05-09T06:33:52.565Z,9.40
2019-05-09T06:36:18.841Z,9.50
2019-05-09T06:38:48.757Z,9.50
2019-05-09T06:41:17.805Z,9.60
2019-05-09T06:43:49.696Z,9.60
2019-05-09T06:46:20.221Z,9.70
2019-05-09T06:48:48.903Z,9.80
2019-05-09T06:51:20.945Z,9.90
2019-05-09T06:53:48.830Z,10.00
2019-05-09T06:56:17.943Z,10.10
2019-05-09T06:58:48.090Z,10.10
2019-05-09T07:01:37.418Z,10.00
2019-05-09T07:04:09.177Z,10.20
2019-05-09T07:06:54.331Z,10.20
2019-05-09T07:09:24.651Z,10.20
2019-05-09T07:11:53.369Z,10.30
2019-05-09T07:14:33.038Z,10.30
2019-05-09T07:17:00.106Z,10.30
2019-05-09T07:19:28.790Z,10.30
2019-05-09T07:22:02.428Z,10.30
2019-05-09T07:24:31.679Z,10.30
2019-05-09T07:27:00.331Z,10.40
2019-05-09T07:29:30.650Z,10.40
2019-05-09T07:32:01.673Z,10.50
2019-05-09T07:34:31.997Z,10.50
2019-05-09T07:37:00.713Z,10.50
2019-05-09T07:39:29.393Z,10.60
2019-05-09T07:41:58.487Z,10.70
2019-05-09T07:44:33.141Z,10.80
2019-05-09T07:46:59.749Z,10.90
2019-05-09T07:49:29.049Z,10.90
2019-05-09T07:51:59.060Z,10.90
2019-05-09T07:54:29.222Z,10.90
2019-05-09T07:56:58.274Z,11.00
2019-05-09T07:59:27.545Z,11.00
2019-05-09T08:01:58.080Z,11.00
2019-05-09T08:04:28.634Z,10.90
2019-05-09T08:06:57.830Z,10.90
2019-05-09T08:09:28.139Z,10.90
2019-05-09T08:11:58.762Z,10.90
2019-05-09T08:14:28.158Z,10.90
2019-05-09T08:16:58.108Z,10.90
2019-05-09T08:19:27.544Z,10.70
2019-05-09T08:21:57.551Z,10.60
2019-05-09T08:24:27.715Z,10.50
2019-05-09T08:26:58.125Z,10.40
2019-05-09T08:29:28.218Z,10.30
2019-05-09T08:31:58.352Z,10.20
2019-05-09T08:34:28.467Z,10.30
2019-05-09T08:36:58.028Z,10.30
2019-05-09T08:39:27.829Z,10.30
2019-05-09T08:41:58.959Z,10.30
2019-05-09T08:44:30.378Z,10.40
2019-05-09T08:46:57.478Z,10.40
2019-05-09T08:49:28.686Z,10.40
2019-05-09T08:52:11.961Z,10.40
2019-05-09T08:54:43.322Z,10.40
2019-05-09T08:57:12.545Z,10.50
2019-05-09T08:59:41.541Z,10.60
2019-05-09T09:02:15.718Z,10.70
2019-05-09T09:04:40.602Z,10.70
2019-05-09T09:07:09.430Z,10.80
2019-05-09T09:09:38.111Z,10.90
2019-05-09T09:12:24.768Z,11.00
2019-05-09T09:14:38.496Z,11.10
2019-05-09T09:17:08.019Z,11.20
2019-05-09T09:19:38.581Z,11.20
2019-05-09T09:22:08.809Z,11.30
2019-05-09T09:24:37.647Z,11.30
2019-05-09T09:27:07.747Z,11.40
2019-05-09T09:29:37.991Z,11.40
2019-05-09T09:32:08.376Z,11.50
2019-05-09T09:34:37.957Z,11.50
2019-05-09T09:37:11.370Z,11.50
2019-05-09T09:39:44.578Z,11.60
2019-05-09T09:42:08.974Z,11.60
2019-05-09T09:44:39.315Z,11.60
2019-05-09T09:47:08.386Z,11.60
2019-05-09T09:49:38.351Z,11.70
2019-05-09T09:52:08.543Z,11.90
2019-05-09T09:54:38.623Z,12.00
2019-05-09T09:57:09.606Z,12.10
2019-05-09T09:59:41.024Z,12.30
2019-05-09T10:02:11.796Z,12.40
2019-05-09T10:04:40.560Z,12.50
2019-05-09T10:07:09.387Z,12.50
2019-05-09T10:09:37.998Z,12.60
2019-05-09T10:12:08.960Z,12.80
2019-05-09T10:14:41.798Z,13.00
2019-05-09T10:17:12.167Z,13.10
2019-05-09T10:19:51.333Z,13.10
2019-05-09T10:22:26.056Z,13.10
2019-05-09T10:24:58.715Z,13.10
2019-05-09T10:27:30.219Z,13.30
2019-05-09T10:29:59.362Z,13.10
2019-05-09T10:32:28.791Z,13.10
2019-05-09T10:34:58.849Z,13.30
2019-05-09T10:37:27.534Z,13.30
2019-05-09T10:39:58.091Z,13.50
2019-05-09T10:42:29.838Z,13.70
2019-05-09T10:45:02.554Z,13.70
2019-05-09T10:47:32.803Z,13.80
2019-05-09T10:50:03.842Z,13.90
2019-05-09T10:52:32.526Z,13.90
2019-05-09T10:55:02.490Z,13.90
2019-05-09T10:57:32.402Z,13.90
2019-05-09T11:00:05.016Z,13.90
2019-05-09T11:02:33.854Z,14.00
2019-05-09T11:05:04.631Z,14.00
2019-05-09T11:07:33.322Z,14.20
2019-05-09T11:10:22.477Z,14.50
2019-05-09T11:12:34.250Z,14.60
2019-05-09T11:15:03.051Z,14.80
2019-05-09T11:17:31.720Z,14.70
2019-05-09T11:20:00.445Z,14.70
2019-05-09T11:22:29.488Z,14.70
2019-05-09T11:24:58.311Z,14.80
2019-05-09T11:27:28.829Z,14.90
2019-05-09T11:29:58.010Z,14.90
2019-05-09T11:32:27.740Z,14.80
2019-05-09T11:34:57.582Z,14.80
2019-05-09T11:37:27.795Z,14.90
2019-05-09T11:39:57.993Z,14.70
2019-05-09T11:42:28.508Z,14.60
2019-05-09T11:44:58.041Z,14.50
2019-05-09T11:47:33.722Z,14.30
2019-05-09T11:49:57.958Z,14.10
2019-05-09T11:52:28.834Z,13.90
2019-05-09T11:54:57.998Z,14.00
2019-05-09T11:57:28.649Z,13.90
2019-05-09T11:59:57.881Z,13.90
2019-05-09T12:02:27.984Z,13.90
2019-05-09T12:04:56.682Z,14.10
2019-05-09T12:07:25.366Z,14.30
2019-05-09T12:09:54.125Z,14.40
2019-05-09T12:12:23.139Z,14.60
2019-05-09T12:14:51.822Z,14.70
2019-05-09T12:17:20.578Z,14.90
2019-05-09T12:19:49.277Z,14.90
2019-05-09T12:22:19.066Z,14.80
2019-05-09T12:24:48.447Z,14.90
2019-05-09T12:27:18.751Z,14.90
2019-05-09T12:29:48.362Z,14.90
2019-05-09T12:32:18.741Z,14.90
2019-05-09T12:34:48.026Z,15.00
2019-05-09T12:37:18.268Z,14.90
2019-05-09T12:39:47.985Z,15.00
2019-05-09T12:42:18.511Z,15.20
2019-05-09T12:44:49.633Z,15.40
2019-05-09T12:47:19.029Z,15.60
2019-05-09T12:49:49.416Z,15.60
2019-05-09T12:52:18.700Z,15.60
2019-05-09T12:54:48.413Z,15.60
2019-05-09T12:57:19.331Z,15.60
2019-05-09T12:59:52.317Z,15.70
2019-05-09T13:02:18.598Z,15.80
2019-05-09T13:04:47.708Z,15.90
2019-05-09T13:07:16.532Z,16.10
2019-05-09T13:09:45.251Z,16.40
2019-05-09T13:12:14.073Z,16.40
2019-05-09T13:14:42.833Z,16.50
2019-05-09T13:17:19.370Z,16.20
2019-05-09T13:19:49.426Z,16.20
2019-05-09T13:22:18.487Z,16.00
2019-05-09T13:24:47.619Z,16.20
2019-05-09T13:27:18.682Z,16.50
2019-05-09T13:29:49.423Z,16.00
2019-05-09T13:32:18.032Z,15.80
2019-05-09T13:34:48.652Z,15.90
2019-05-09T13:37:18.845Z,16.10
2019-05-09T13:39:47.781Z,16.60
2019-05-09T13:42:19.530Z,16.90
2019-05-09T13:44:47.525Z,17.40
2019-05-09T13:47:17.939Z,17.50
2019-05-09T13:49:48.421Z,17.10
2019-05-09T13:52:17.945Z,17.10
2019-05-09T13:54:48.222Z,16.90
2019-05-09T13:57:18.807Z,16.80
2019-05-09T13:59:48.578Z,16.90
2019-05-09T14:02:18.719Z,17.20
2019-05-09T14:04:48.618Z,17.80
2019-05-09T14:09:48.424Z,17.90
2019-05-09T14:12:17.807Z,18.10
2019-05-09T14:17:15.085Z,18.80
2019-05-09T14:19:47.159Z,18.30
2019-05-09T14:22:14.314Z,18.30
2019-05-09T14:24:43.038Z,18.80
2019-05-09T14:27:11.735Z,19.20
2019-05-09T14:29:40.494Z,19.10
2019-05-09T14:34:39.027Z,18.40
2019-05-09T14:37:09.699Z,18.00
2019-05-09T14:42:09.209Z,17.50
2019-05-09T14:44:38.182Z,17.00
2019-05-09T14:47:08.038Z,16.40
2019-05-09T14:49:43.395Z,16.10
2019-05-09T14:52:08.043Z,15.40
2019-05-09T14:54:39.220Z,14.90
2019-05-09T14:57:09.673Z,14.60
2019-05-09T14:59:38.400Z,14.30
2019-05-09T15:02:09.054Z,14.20
2019-05-09T15:04:38.720Z,14.40
2019-05-09T15:07:07.725Z,14.30
2019-05-09T15:09:36.468Z,14.70
2019-05-09T15:12:05.189Z,15.60
2019-05-09T15:14:33.887Z,16.10
2019-05-09T15:17:02.563Z,16.60
2019-05-09T15:19:31.355Z,17.50
2019-05-09T15:22:00.916Z,18.40
2019-05-09T15:24:29.717Z,18.80
2019-05-09T15:26:58.526Z,19.00
2019-05-09T15:29:29.042Z,19.10
2019-05-09T15:32:04.700Z,18.70
2019-05-09T15:34:28.641Z,18.30
2019-05-09T15:36:58.285Z,18.10
2019-05-09T15:39:27.776Z,17.50
2019-05-09T15:41:58.032Z,16.60
2019-05-09T15:44:27.239Z,16.30
2019-05-09T15:47:00.431Z,16.00
2019-05-09T15:49:29.109Z,15.80
2019-05-09T15:51:58.596Z,15.50
2019-05-09T15:54:29.431Z,15.60
2019-05-09T15:56:58.119Z,15.80
2019-05-09T15:59:28.140Z,15.60
2019-05-09T16:01:58.380Z,15.60
2019-05-09T16:04:28.139Z,15.90
2019-05-09T16:06:57.007Z,16.10
2019-05-09T16:09:28.415Z,15.90
2019-05-09T16:11:56.593Z,15.60
2019-05-09T16:14:27.711Z,15.60
2019-05-09T16:16:55.918Z,15.60
2019-05-09T16:19:24.567Z,15.50
2019-05-09T16:21:53.282Z,15.40
2019-05-09T16:24:21.987Z,15.30
2019-05-09T16:29:19.008Z,15.40
2019-05-09T16:31:48.197Z,15.40
2019-05-09T16:34:17.778Z,15.30
2019-05-09T16:36:47.946Z,15.50
2019-05-09T16:39:17.910Z,15.50
2019-05-09T16:41:48.395Z,15.30
2019-05-09T16:44:18.325Z,15.20
2019-05-09T16:46:48.400Z,15.00
2019-05-09T16:49:19.799Z,14.90
2019-05-09T16:51:48.615Z,14.90
2019-05-09T16:54:18.141Z,14.70
2019-05-09T16:56:47.104Z,14.50
2019-05-09T16:59:17.827Z,14.40
2019-05-09T17:01:49.503Z,14.30
2019-05-09T17:04:19.157Z,14.30
2019-05-09T17:06:49.458Z,14.30
2019-05-09T17:09:18.085Z,14.20
2019-05-09T17:11:48.022Z,14.20
2019-05-09T17:14:18.942Z,14.20
2019-05-09T17:16:48.279Z,14.20
2019-05-09T17:19:19.518Z,14.20
2019-05-09T17:21:49.554Z,14.20
2019-05-09T17:24:21.125Z,14.10
2019-05-09T17:26:49.881Z,13.80
2019-05-09T17:29:19.218Z,13.70
2019-05-09T17:31:48.768Z,13.30
2019-05-09T17:34:18.208Z,13.00
2019-05-09T17:36:46.991Z,12.90
2019-05-09T17:39:15.674Z,12.90
2019-05-09T17:41:44.349Z,12.80
2019-05-09T17:44:13.006Z,12.70
2019-05-09T17:46:42.074Z,12.70
2019-05-09T17:49:10.828Z,12.70
2019-05-09T17:51:39.586Z,12.60
2019-05-09T17:54:08.321Z,12.60
2019-05-09T17:56:37.864Z,12.70
2019-05-09T17:59:08.618Z,12.70
2019-05-09T18:01:37.310Z,12.60
2019-05-09T18:04:06.764Z,12.60
2019-05-09T18:06:37.915Z,12.60
2019-05-09T18:09:08.435Z,12.50
2019-05-09T18:11:38.271Z,12.50
2019-05-09T18:14:08.077Z,12.50
2019-05-09T18:16:38.929Z,12.50
2019-05-09T18:19:08.590Z,12.50
2019-05-09T18:21:49.976Z,12.60
2019-05-09T18:24:09.027Z,12.60
2019-05-09T18:26:38.351Z,12.60
2019-05-09T18:29:07.451Z,12.60
2019-05-09T18:31:42.403Z,12.60
2019-05-09T18:34:11.101Z,12.60
2019-05-09T18:36:39.778Z,12.60
2019-05-09T18:39:08.577Z,12.60
2019-05-09T18:41:37.278Z,12.50
2019-05-09T18:44:07.489Z,12.60
2019-05-09T18:46:36.326Z,12.60
2019-05-09T18:49:05.152Z,12.60
2019-05-09T18:51:33.900Z,12.60
2019-05-09T18:54:05.046Z,12.60
2019-05-09T18:56:33.724Z,12.50
2019-05-09T18:59:04.991Z,12.50
2019-05-09T19:01:34.382Z,12.40
2019-05-09T19:04:03.238Z,12.30
2019-05-09T19:06:32.278Z,12.30
2019-05-09T19:09:00.899Z,12.30
2019-05-09T19:11:29.844Z,12.30
2019-05-09T19:13:59.126Z,12.30
2019-05-09T19:16:34.950Z,12.30
2019-05-09T19:19:21.643Z,12.20
2019-05-09T19:21:54.758Z,12.20
2019-05-09T19:24:23.816Z,12.20
2019-05-09T19:26:52.503Z,12.20
2019-05-09T19:29:21.226Z,12.20
2019-05-09T19:31:50.025Z,12.20
2019-05-09T19:34:18.704Z,12.20
2019-05-09T19:36:47.446Z,12.20
2019-05-09T19:39:16.146Z,12.10
2019-05-09T19:41:44.870Z,12.10
2019-05-09T19:44:13.952Z,12.10
2019-05-09T19:46:42.636Z,12.10
2019-05-09T19:49:11.739Z,12.00
2019-05-09T19:51:40.441Z,12.00
2019-05-09T19:54:09.172Z,11.90
2019-05-09T19:56:37.854Z,11.90
2019-05-09T19:59:07.969Z,11.90
2019-05-09T20:01:37.541Z,11.90
2019-05-09T20:04:06.296Z,11.80
2019-05-09T20:06:34.987Z,11.80
2019-05-09T20:09:06.684Z,11.80
2019-05-09T20:11:42.827Z,11.70
2019-05-09T20:14:13.193Z,11.60
2019-05-09T20:16:43.564Z,11.60
2019-05-09T20:19:12.284Z,11.60
2019-05-09T20:21:40.977Z,11.50
2019-05-09T20:24:09.698Z,11.40
2019-05-09T20:26:38.389Z,11.40
2019-05-09T20:29:07.041Z,11.40
2019-05-09T20:31:35.811Z,11.40
2019-05-09T20:34:04.930Z,11.40
2019-05-09T20:36:33.613Z,11.40
2019-05-09T20:39:03.207Z,11.40
2019-05-09T20:41:32.210Z,11.40
2019-05-09T20:44:03.858Z,11.40
2019-05-09T20:46:32.766Z,11.40
2019-05-09T20:49:01.722Z,11.40
2019-05-09T20:51:30.940Z,11.40
2019-05-09T20:53:59.830Z,11.40
2019-05-09T20:56:28.682Z,11.40
2019-05-09T20:58:57.545Z,11.40
2019-05-09T21:01:26.454Z,11.40
2019-05-09T21:04:00.286Z,11.50
2019-05-09T21:06:26.002Z,11.40
2019-05-09T21:08:54.875Z,11.40
2019-05-09T21:11:23.742Z,11.40
2019-05-09T21:13:52.650Z,11.40
2019-05-09T21:16:21.555Z,11.40
2019-05-09T21:18:50.606Z,11.40
2019-05-09T21:21:19.516Z,11.30
2019-05-09T21:23:48.390Z,11.30
2019-05-09T21:26:17.697Z,11.20
2019-05-09T21:28:46.973Z,11.20
2019-05-09T21:31:15.874Z,11.30
2019-05-09T21:33:44.766Z,11.20
2019-05-09T21:36:13.522Z,11.30
2019-05-09T21:38:42.134Z,11.40
2019-05-09T21:41:10.862Z,11.40
2019-05-09T21:43:40.238Z,11.40
2019-05-09T21:46:08.918Z,11.40
2019-05-09T21:48:38.552Z,11.40
2019-05-09T21:51:07.422Z,11.40
2019-05-09T21:53:40.817Z,11.30
2019-05-09T21:56:06.614Z,11.30
2019-05-09T21:58:35.296Z,11.20
2019-05-09T22:01:05.174Z,11.20
2019-05-09T22:03:34.002Z,11.20
2019-05-09T22:06:02.687Z,11.20
2019-05-09T22:08:31.950Z,11.30
2019-05-09T22:11:00.672Z,11.20
2019-05-09T22:13:29.391Z,11.20
2019-05-09T22:15:58.427Z,11.20
2019-05-09T22:18:27.153Z,11.20
2019-05-09T22:20:55.830Z,11.20
2019-05-09T22:23:24.905Z,11.20
2019-05-09T22:25:53.595Z,11.20
2019-05-09T22:28:22.323Z,11.20
2019-05-09T22:30:51.006Z,11.20
2019-05-09T22:33:19.699Z,11.20
2019-05-09T22:35:48.392Z,11.20
2019-05-09T22:38:17.356Z,11.20
2019-05-09T22:40:46.088Z,11.20
2019-05-09T22:43:14.869Z,11.20
2019-05-09T22:45:44.190Z,11.20
2019-05-09T22:48:13.214Z,11.20
2019-05-09T22:50:41.898Z,11.20
2019-05-09T22:53:10.653Z,11.30
2019-05-09T22:55:39.615Z,11.30
2019-05-09T22:58:08.330Z,11.20
2019-05-09T23:00:37.811Z,11.20
2019-05-09T23:03:06.494Z,11.20
2019-05-09T23:05:35.222Z,11.20
2019-05-09T23:08:03.901Z,11.20
2019-05-09T23:10:32.554Z,11.20
2019-05-09T23:13:01.240Z,11.20
2019-05-09T23:15:29.958Z,11.20
2019-05-09T23:17:58.643Z,11.20
2019-05-09T23:20:29.278Z,11.20
2019-05-09T23:22:59.594Z,11.20
2019-05-09T23:25:28.342Z,11.20
